ENBN

Details ICAO ENBN (BNN)
Name BRONNOY
Region Norway
Timezone Unknown (UTC+0.0)
Plans Departing 27
Arriving 18
Stats Elevation 25 ft / 8 m (AMSL)
Location 65.459085° 12.213468°
Runways 1
Magnetic Variation 4.409° E
Sunrise 2018-05-27 00:58:00 UTC / 2018-05-27 00:58:00 Local
Sunset 2018-05-27 21:21:28 UTC / 2018-05-27 21:21:28 Local
Advertisement - Login to hide

Runways

ID Width Length Bearing (true) Bearing (mag) Surface Threshold Offset Overrun Length
04 98 ft / 30 m 4,715 ft / 1,437 m 38.96° 34.55° Asphalt 387 ft / 118 m 0 ft / 0 m
22 98 ft / 30 m 4,715 ft / 1,437 m 218.97° 214.56° Asphalt 387 ft / 118 m 0 ft / 0 m

Approach Navaids

Runway Type Ident Frequency Range Bearing (true) Bearing (mag) Slope Elevation
04 Localiser BY 111.15 MHz 18 nm / 33 km 39.59° 35.18° - 69 ft / 21 m (AMSL)

Map

Weather


0- 5 10 15 20 25 30 35+ Temperature / ° C

Clouds and Precipitation
Forecast for 2018-05-27 18:00 UTC. Updated 3 hours ago

Ground ~20,000 ft ~40,000 ft Winds

METAR

ENBN 271950Z AUTO 36006KT 9999NDV NCD 14/07 Q1028

TAF

Not found

Frequencies

Tower 119.60 MHz AFIS
Warning: Do not use this data for real-world aviation or navigation. No guarantee of current accuracy is given.